sensor_id;sensor_type;location;lat;lon;timestamp;temperature;humidity
18721;DHT22;9489;50.948;3.114;2022-09-09T00:00:24;15.70;99.90
18721;DHT22;9489;50.948;3.114;2022-09-09T00:02:58;15.70;99.90
18721;DHT22;9489;50.948;3.114;2022-09-09T00:05:29;15.70;99.90
18721;DHT22;9489;50.948;3.114;2022-09-09T00:07:59;15.70;99.90
18721;DHT22;9489;50.948;3.114;2022-09-09T00:10:38;15.70;99.90
18721;DHT22;9489;50.948;3.114;2022-09-09T00:13:24;15.70;99.90
18721;DHT22;9489;50.948;3.114;2022-09-09T00:16:13;15.70;99.90
18721;DHT22;9489;50.948;3.114;2022-09-09T00:21:26;15.80;99.90
18721;DHT22;9489;50.948;3.114;2022-09-09T00:23:56;15.80;99.90
18721;DHT22;9489;50.948;3.114;2022-09-09T00:26:32;15.70;99.90
18721;DHT22;9489;50.948;3.114;2022-09-09T00:31:37;15.80;99.90
18721;DHT22;9489;50.948;3.114;2022-09-09T00:36:35;15.80;99.90
18721;DHT22;9489;50.948;3.114;2022-09-09T00:39:03;15.90;99.90
18721;DHT22;9489;50.948;3.114;2022-09-09T00:44:03;15.90;99.90
18721;DHT22;9489;50.948;3.114;2022-09-09T00:52:23;15.90;99.90
18721;DHT22;9489;50.948;3.114;2022-09-09T00:57:39;15.90;99.90
18721;DHT22;9489;50.948;3.114;2022-09-09T01:00:31;15.90;99.90
18721;DHT22;9489;50.948;3.114;2022-09-09T01:10:56;15.90;99.90
18721;DHT22;9489;50.948;3.114;2022-09-09T01:13:32;15.80;99.90
18721;DHT22;9489;50.948;3.114;2022-09-09T01:16:00;15.80;99.90
18721;DHT22;9489;50.948;3.114;2022-09-09T01:18:39;15.70;99.90
18721;DHT22;9489;50.948;3.114;2022-09-09T01:21:32;15.70;99.90
18721;DHT22;9489;50.948;3.114;2022-09-09T01:24:20;15.60;99.90
18721;DHT22;9489;50.948;3.114;2022-09-09T01:26:49;15.60;99.90
18721;DHT22;9489;50.948;3.114;2022-09-09T01:29:18;15.60;99.90
18721;DHT22;9489;50.948;3.114;2022-09-09T01:34:19;15.60;99.90
18721;DHT22;9489;50.948;3.114;2022-09-09T01:37:01;15.60;99.90
18721;DHT22;9489;50.948;3.114;2022-09-09T01:39:27;15.60;99.90
18721;DHT22;9489;50.948;3.114;2022-09-09T01:41:55;15.50;99.90
18721;DHT22;9489;50.948;3.114;2022-09-09T01:44:21;15.60;99.90
18721;DHT22;9489;50.948;3.114;2022-09-09T01:46:47;15.60;99.90
18721;DHT22;9489;50.948;3.114;2022-09-09T01:49:13;15.60;99.90
18721;DHT22;9489;50.948;3.114;2022-09-09T01:51:40;15.60;99.90
18721;DHT22;9489;50.948;3.114;2022-09-09T01:54:07;15.60;99.90
18721;DHT22;9489;50.948;3.114;2022-09-09T01:56:40;15.70;99.90
18721;DHT22;9489;50.948;3.114;2022-09-09T02:04:42;15.60;99.90
18721;DHT22;9489;50.948;3.114;2022-09-09T02:07:41;15.60;99.90
18721;DHT22;9489;50.948;3.114;2022-09-09T02:10:12;15.60;99.90
18721;DHT22;9489;50.948;3.114;2022-09-09T02:12:46;15.60;99.90
18721;DHT22;9489;50.948;3.114;2022-09-09T02:18:08;15.60;99.90
18721;DHT22;9489;50.948;3.114;2022-09-09T02:20:37;15.70;99.90
18721;DHT22;9489;50.948;3.114;2022-09-09T02:23:04;15.70;99.90
18721;DHT22;9489;50.948;3.114;2022-09-09T02:25:30;15.70;99.90
18721;DHT22;9489;50.948;3.114;2022-09-09T02:27:58;15.70;99.90
18721;DHT22;9489;50.948;3.114;2022-09-09T02:30:25;15.70;99.90
18721;DHT22;9489;50.948;3.114;2022-09-09T02:32:54;15.60;99.90
18721;DHT22;9489;50.948;3.114;2022-09-09T02:35:26;15.60;99.90
18721;DHT22;9489;50.948;3.114;2022-09-09T02:37:58;15.60;99.90
18721;DHT22;9489;50.948;3.114;2022-09-09T02:40:25;15.60;99.90
18721;DHT22;9489;50.948;3.114;2022-09-09T02:42:50;15.60;99.90
18721;DHT22;9489;50.948;3.114;2022-09-09T02:45:22;15.50;99.90
18721;DHT22;9489;50.948;3.114;2022-09-09T02:48:01;15.50;99.90
18721;DHT22;9489;50.948;3.114;2022-09-09T02:53:43;15.50;99.90
18721;DHT22;9489;50.948;3.114;2022-09-09T02:56:16;15.50;99.90
18721;DHT22;9489;50.948;3.114;2022-09-09T02:58:43;15.50;99.90
18721;DHT22;9489;50.948;3.114;2022-09-09T03:01:09;15.60;99.90
18721;DHT22;9489;50.948;3.114;2022-09-09T03:03:35;15.50;99.90
18721;DHT22;9489;50.948;3.114;2022-09-09T03:06:01;15.60;99.90
18721;DHT22;9489;50.948;3.114;2022-09-09T03:08:26;15.60;99.90
18721;DHT22;9489;50.948;3.114;2022-09-09T03:10:54;15.60;99.90
18721;DHT22;9489;50.948;3.114;2022-09-09T03:13:20;15.60;99.90
18721;DHT22;9489;50.948;3.114;2022-09-09T03:15:45;15.60;99.90
18721;DHT22;9489;50.948;3.114;2022-09-09T03:18:13;15.70;99.90
18721;DHT22;9489;50.948;3.114;2022-09-09T03:20:39;15.70;99.90
18721;DHT22;9489;50.948;3.114;2022-09-09T03:23:04;15.70;99.90
18721;DHT22;9489;50.948;3.114;2022-09-09T03:25:30;15.70;99.90
18721;DHT22;9489;50.948;3.114;2022-09-09T03:27:56;15.70;99.90
18721;DHT22;9489;50.948;3.114;2022-09-09T03:30:23;15.70;99.90
18721;DHT22;9489;50.948;3.114;2022-09-09T03:32:48;15.70;99.90
18721;DHT22;9489;50.948;3.114;2022-09-09T03:35:14;15.70;99.90
18721;DHT22;9489;50.948;3.114;2022-09-09T03:37:41;15.70;99.90
18721;DHT22;9489;50.948;3.114;2022-09-09T03:40:07;15.70;99.90
18721;DHT22;9489;50.948;3.114;2022-09-09T03:42:35;15.70;99.90
18721;DHT22;9489;50.948;3.114;2022-09-09T03:45:06;15.70;99.90
18721;DHT22;9489;50.948;3.114;2022-09-09T03:47:32;15.80;99.90
18721;DHT22;9489;50.948;3.114;2022-09-09T03:49:57;15.70;99.90
18721;DHT22;9489;50.948;3.114;2022-09-09T03:52:23;15.70;99.90
18721;DHT22;9489;50.948;3.114;2022-09-09T03:54:52;15.60;99.90
18721;DHT22;9489;50.948;3.114;2022-09-09T03:57:19;15.70;99.90
18721;DHT22;9489;50.948;3.114;2022-09-09T03:59:45;15.70;99.90
18721;DHT22;9489;50.948;3.114;2022-09-09T04:02:11;15.60;99.90
18721;DHT22;9489;50.948;3.114;2022-09-09T04:04:36;15.60;99.90
18721;DHT22;9489;50.948;3.114;2022-09-09T04:07:02;15.60;99.90
18721;DHT22;9489;50.948;3.114;2022-09-09T04:09:28;15.60;99.90
18721;DHT22;9489;50.948;3.114;2022-09-09T04:11:53;15.70;99.90
18721;DHT22;9489;50.948;3.114;2022-09-09T04:14:20;15.70;99.90
18721;DHT22;9489;50.948;3.114;2022-09-09T04:16:46;15.60;99.90
18721;DHT22;9489;50.948;3.114;2022-09-09T04:19:12;15.60;99.90
18721;DHT22;9489;50.948;3.114;2022-09-09T04:21:40;15.60;99.90
18721;DHT22;9489;50.948;3.114;2022-09-09T04:24:07;15.60;99.90
18721;DHT22;9489;50.948;3.114;2022-09-09T04:26:33;15.50;99.90
18721;DHT22;9489;50.948;3.114;2022-09-09T04:28:59;15.50;99.90
18721;DHT22;9489;50.948;3.114;2022-09-09T04:31:25;15.50;99.90
18721;DHT22;9489;50.948;3.114;2022-09-09T04:33:51;15.50;99.90
18721;DHT22;9489;50.948;3.114;2022-09-09T04:36:17;15.50;99.90
18721;DHT22;9489;50.948;3.114;2022-09-09T04:38:45;15.50;99.90
18721;DHT22;9489;50.948;3.114;2022-09-09T04:41:10;15.50;99.90
18721;DHT22;9489;50.948;3.114;2022-09-09T04:43:39;15.50;99.90
18721;DHT22;9489;50.948;3.114;2022-09-09T04:46:05;15.50;99.90
18721;DHT22;9489;50.948;3.114;2022-09-09T04:48:31;15.40;99.90
18721;DHT22;9489;50.948;3.114;2022-09-09T04:51:00;15.40;99.90
18721;DHT22;9489;50.948;3.114;2022-09-09T04:53:26;15.40;99.90
18721;DHT22;9489;50.948;3.114;2022-09-09T04:56:00;15.40;99.90
18721;DHT22;9489;50.948;3.114;2022-09-09T04:58:26;15.40;99.90
18721;DHT22;9489;50.948;3.114;2022-09-09T05:00:52;15.30;99.90
18721;DHT22;9489;50.948;3.114;2022-09-09T05:03:17;15.30;99.90
18721;DHT22;9489;50.948;3.114;2022-09-09T05:05:44;15.30;99.90
18721;DHT22;9489;50.948;3.114;2022-09-09T05:08:10;15.30;99.90
18721;DHT22;9489;50.948;3.114;2022-09-09T05:10:38;15.20;99.90
18721;DHT22;9489;50.948;3.114;2022-09-09T05:13:04;15.20;99.90
18721;DHT22;9489;50.948;3.114;2022-09-09T05:15:30;15.20;99.90
18721;DHT22;9489;50.948;3.114;2022-09-09T05:17:58;15.20;99.90
18721;DHT22;9489;50.948;3.114;2022-09-09T05:20:24;15.20;99.90
18721;DHT22;9489;50.948;3.114;2022-09-09T05:22:53;15.20;99.90
18721;DHT22;9489;50.948;3.114;2022-09-09T05:25:19;15.20;99.90
18721;DHT22;9489;50.948;3.114;2022-09-09T05:27:45;15.20;99.90
18721;DHT22;9489;50.948;3.114;2022-09-09T05:30:10;15.30;99.90
18721;DHT22;9489;50.948;3.114;2022-09-09T05:32:36;15.30;99.90
18721;DHT22;9489;50.948;3.114;2022-09-09T05:35:02;15.30;99.90
18721;DHT22;9489;50.948;3.114;2022-09-09T05:37:31;15.30;99.90
18721;DHT22;9489;50.948;3.114;2022-09-09T05:39:56;15.40;99.90
18721;DHT22;9489;50.948;3.114;2022-09-09T05:42:23;15.30;99.90
18721;DHT22;9489;50.948;3.114;2022-09-09T05:44:49;15.30;99.90
18721;DHT22;9489;50.948;3.114;2022-09-09T05:47:16;15.30;99.90
18721;DHT22;9489;50.948;3.114;2022-09-09T05:49:42;15.40;99.90
18721;DHT22;9489;50.948;3.114;2022-09-09T05:52:08;15.30;99.90
18721;DHT22;9489;50.948;3.114;2022-09-09T05:54:35;15.30;99.90
18721;DHT22;9489;50.948;3.114;2022-09-09T05:57:00;15.30;99.90
18721;DHT22;9489;50.948;3.114;2022-09-09T05:59:26;15.30;99.90
18721;DHT22;9489;50.948;3.114;2022-09-09T06:01:51;15.40;99.90
18721;DHT22;9489;50.948;3.114;2022-09-09T06:04:17;15.40;99.90
18721;DHT22;9489;50.948;3.114;2022-09-09T06:06:43;15.50;99.90
18721;DHT22;9489;50.948;3.114;2022-09-09T06:09:09;15.50;99.90
18721;DHT22;9489;50.948;3.114;2022-09-09T06:11:37;15.50;99.90
18721;DHT22;9489;50.948;3.114;2022-09-09T06:14:03;15.50;99.90
18721;DHT22;9489;50.948;3.114;2022-09-09T06:16:30;15.50;99.90
18721;DHT22;9489;50.948;3.114;2022-09-09T06:18:58;15.50;99.90
18721;DHT22;9489;50.948;3.114;2022-09-09T06:21:26;15.40;99.90
18721;DHT22;9489;50.948;3.114;2022-09-09T06:23:52;15.50;99.90
18721;DHT22;9489;50.948;3.114;2022-09-09T06:26:21;15.50;99.90
18721;DHT22;9489;50.948;3.114;2022-09-09T06:28:48;15.50;99.90
18721;DHT22;9489;50.948;3.114;2022-09-09T06:31:17;15.50;99.90
18721;DHT22;9489;50.948;3.114;2022-09-09T06:33:43;15.40;99.90
18721;DHT22;9489;50.948;3.114;2022-09-09T06:36:32;15.40;99.90
18721;DHT22;9489;50.948;3.114;2022-09-09T06:38:59;15.40;99.90
18721;DHT22;9489;50.948;3.114;2022-09-09T06:41:27;15.30;99.90
18721;DHT22;9489;50.948;3.114;2022-09-09T06:43:53;15.30;99.90
18721;DHT22;9489;50.948;3.114;2022-09-09T06:46:23;15.30;99.90
18721;DHT22;9489;50.948;3.114;2022-09-09T06:48:53;15.20;99.90
18721;DHT22;9489;50.948;3.114;2022-09-09T06:51:21;15.20;99.90
18721;DHT22;9489;50.948;3.114;2022-09-09T06:53:50;15.10;99.90
18721;DHT22;9489;50.948;3.114;2022-09-09T06:58:42;15.10;99.90
18721;DHT22;9489;50.948;3.114;2022-09-09T07:01:10;15.10;99.90
18721;DHT22;9489;50.948;3.114;2022-09-09T07:03:38;15.10;99.90
18721;DHT22;9489;50.948;3.114;2022-09-09T07:06:04;15.20;99.90
18721;DHT22;9489;50.948;3.114;2022-09-09T07:08:30;15.20;99.90
18721;DHT22;9489;50.948;3.114;2022-09-09T07:11:06;15.20;99.90
18721;DHT22;9489;50.948;3.114;2022-09-09T07:13:32;15.20;99.90
18721;DHT22;9489;50.948;3.114;2022-09-09T07:16:09;15.10;99.90
18721;DHT22;9489;50.948;3.114;2022-09-09T07:18:35;15.20;99.90
18721;DHT22;9489;50.948;3.114;2022-09-09T07:21:01;15.20;99.90
18721;DHT22;9489;50.948;3.114;2022-09-09T07:23:28;15.20;99.90
18721;DHT22;9489;50.948;3.114;2022-09-09T07:25:54;15.20;99.90
18721;DHT22;9489;50.948;3.114;2022-09-09T07:28:20;15.20;99.90
18721;DHT22;9489;50.948;3.114;2022-09-09T07:30:57;15.20;99.90
18721;DHT22;9489;50.948;3.114;2022-09-09T07:33:23;15.20;99.90
18721;DHT22;9489;50.948;3.114;2022-09-09T07:35:49;15.30;99.90
18721;DHT22;9489;50.948;3.114;2022-09-09T07:38:15;15.30;99.90
18721;DHT22;9489;50.948;3.114;2022-09-09T07:40:41;15.40;99.90
18721;DHT22;9489;50.948;3.114;2022-09-09T07:43:06;15.40;99.90
18721;DHT22;9489;50.948;3.114;2022-09-09T07:45:34;15.50;99.90
18721;DHT22;9489;50.948;3.114;2022-09-09T07:48:00;15.60;99.90
18721;DHT22;9489;50.948;3.114;2022-09-09T07:50:25;15.60;99.90
18721;DHT22;9489;50.948;3.114;2022-09-09T07:52:51;15.70;99.90
18721;DHT22;9489;50.948;3.114;2022-09-09T07:55:17;15.70;99.90
18721;DHT22;9489;50.948;3.114;2022-09-09T07:57:43;15.80;99.90
18721;DHT22;9489;50.948;3.114;2022-09-09T08:00:09;15.80;99.90
18721;DHT22;9489;50.948;3.114;2022-09-09T08:02:35;15.80;99.90
18721;DHT22;9489;50.948;3.114;2022-09-09T08:05:01;15.80;99.90
18721;DHT22;9489;50.948;3.114;2022-09-09T08:07:27;15.90;99.90
18721;DHT22;9489;50.948;3.114;2022-09-09T08:09:53;16.00;99.90
18721;DHT22;9489;50.948;3.114;2022-09-09T08:12:21;16.00;99.90
18721;DHT22;9489;50.948;3.114;2022-09-09T08:14:46;16.00;99.90
18721;DHT22;9489;50.948;3.114;2022-09-09T08:17:12;16.00;99.90
18721;DHT22;9489;50.948;3.114;2022-09-09T08:19:38;16.00;99.90
18721;DHT22;9489;50.948;3.114;2022-09-09T08:22:03;16.10;99.90
18721;DHT22;9489;50.948;3.114;2022-09-09T08:24:29;16.10;99.90
18721;DHT22;9489;50.948;3.114;2022-09-09T08:26:54;16.20;99.90
18721;DHT22;9489;50.948;3.114;2022-09-09T08:29:22;16.30;99.90
18721;DHT22;9489;50.948;3.114;2022-09-09T08:31:52;16.40;99.90
18721;DHT22;9489;50.948;3.114;2022-09-09T08:34:20;16.50;99.90
18721;DHT22;9489;50.948;3.114;2022-09-09T08:36:46;16.80;99.90
18721;DHT22;9489;50.948;3.114;2022-09-09T08:39:15;17.30;99.90
18721;DHT22;9489;50.948;3.114;2022-09-09T08:44:29;17.60;99.90
18721;DHT22;9489;50.948;3.114;2022-09-09T08:47:14;17.70;99.90
18721;DHT22;9489;50.948;3.114;2022-09-09T08:52:42;17.90;99.90
18721;DHT22;9489;50.948;3.114;2022-09-09T08:55:28;18.00;99.90
18721;DHT22;9489;50.948;3.114;2022-09-09T08:58:05;18.10;99.90
18721;DHT22;9489;50.948;3.114;2022-09-09T09:06:04;18.30;99.90
18721;DHT22;9489;50.948;3.114;2022-09-09T09:11:04;17.90;99.90
18721;DHT22;9489;50.948;3.114;2022-09-09T09:13:34;17.80;99.90
18721;DHT22;9489;50.948;3.114;2022-09-09T09:18:47;17.50;99.90
18721;DHT22;9489;50.948;3.114;2022-09-09T09:21:21;17.60;99.90
18721;DHT22;9489;50.948;3.114;2022-09-09T09:23:56;17.50;99.90
18721;DHT22;9489;50.948;3.114;2022-09-09T09:26:24;17.60;99.90
18721;DHT22;9489;50.948;3.114;2022-09-09T09:28:54;17.60;99.90
18721;DHT22;9489;50.948;3.114;2022-09-09T09:31:21;17.60;99.90
18721;DHT22;9489;50.948;3.114;2022-09-09T09:33:52;17.60;99.90
18721;DHT22;9489;50.948;3.114;2022-09-09T09:36:19;17.60;99.90
18721;DHT22;9489;50.948;3.114;2022-09-09T09:38:53;17.70;99.90
18721;DHT22;9489;50.948;3.114;2022-09-09T09:41:32;17.90;99.90
18721;DHT22;9489;50.948;3.114;2022-09-09T09:43:58;18.10;99.90
18721;DHT22;9489;50.948;3.114;2022-09-09T09:46:24;18.10;99.90
18721;DHT22;9489;50.948;3.114;2022-09-09T09:49:01;18.30;99.90
18721;DHT22;9489;50.948;3.114;2022-09-09T09:51:30;18.70;99.90
18721;DHT22;9489;50.948;3.114;2022-09-09T09:56:35;18.90;99.90
18721;DHT22;9489;50.948;3.114;2022-09-09T09:59:01;18.60;99.90
18721;DHT22;9489;50.948;3.114;2022-09-09T10:01:27;18.50;99.90
18721;DHT22;9489;50.948;3.114;2022-09-09T10:04:13;18.40;99.90
18721;DHT22;9489;50.948;3.114;2022-09-09T10:06:41;18.30;99.90
18721;DHT22;9489;50.948;3.114;2022-09-09T10:09:28;18.10;99.90
18721;DHT22;9489;50.948;3.114;2022-09-09T10:22:49;18.30;99.90
18721;DHT22;9489;50.948;3.114;2022-09-09T10:36:25;18.40;99.90
18721;DHT22;9489;50.948;3.114;2022-09-09T10:39:06;18.50;99.90
18721;DHT22;9489;50.948;3.114;2022-09-09T10:42:05;18.60;99.90
18721;DHT22;9489;50.948;3.114;2022-09-09T10:53:17;18.60;99.90
18721;DHT22;9489;50.948;3.114;2022-09-09T10:56:08;18.60;99.90
18721;DHT22;9489;50.948;3.114;2022-09-09T11:01:19;19.10;99.90
18721;DHT22;9489;50.948;3.114;2022-09-09T11:03:55;19.00;99.90
18721;DHT22;9489;50.948;3.114;2022-09-09T11:06:36;18.90;99.90
18721;DHT22;9489;50.948;3.114;2022-09-09T11:09:03;18.70;99.90
18721;DHT22;9489;50.948;3.114;2022-09-09T11:11:39;18.70;99.90
18721;DHT22;9489;50.948;3.114;2022-09-09T11:14:33;18.70;99.90
18721;DHT22;9489;50.948;3.114;2022-09-09T11:17:08;18.90;99.90
18721;DHT22;9489;50.948;3.114;2022-09-09T11:19:39;19.00;99.90
18721;DHT22;9489;50.948;3.114;2022-09-09T11:25:16;20.30;99.90
18721;DHT22;9489;50.948;3.114;2022-09-09T11:28:13;21.90;99.90
18721;DHT22;9489;50.948;3.114;2022-09-09T11:33:41;21.50;99.90
18721;DHT22;9489;50.948;3.114;2022-09-09T11:36:55;21.20;99.90
18721;DHT22;9489;50.948;3.114;2022-09-09T11:39:44;20.60;99.90
18721;DHT22;9489;50.948;3.114;2022-09-09T11:42:21;20.20;99.90
18721;DHT22;9489;50.948;3.114;2022-09-09T11:44:47;20.00;99.90
18721;DHT22;9489;50.948;3.114;2022-09-09T11:47:27;19.70;99.90
18721;DHT22;9489;50.948;3.114;2022-09-09T11:52:42;19.40;99.90
18721;DHT22;9489;50.948;3.114;2022-09-09T11:57:48;19.00;99.90
18721;DHT22;9489;50.948;3.114;2022-09-09T12:00:38;18.90;99.90
18721;DHT22;9489;50.948;3.114;2022-09-09T12:03:06;18.60;99.90
18721;DHT22;9489;50.948;3.114;2022-09-09T12:05:52;18.30;99.90
18721;DHT22;9489;50.948;3.114;2022-09-09T12:08:26;18.10;99.90
18721;DHT22;9489;50.948;3.114;2022-09-09T12:10:58;18.00;99.90
18721;DHT22;9489;50.948;3.114;2022-09-09T12:13:28;17.90;99.90
18721;DHT22;9489;50.948;3.114;2022-09-09T12:15:59;17.90;99.90
18721;DHT22;9489;50.948;3.114;2022-09-09T12:23:57;17.90;99.90
18721;DHT22;9489;50.948;3.114;2022-09-09T12:26:58;18.10;99.90
18721;DHT22;9489;50.948;3.114;2022-09-09T12:32:11;18.30;99.90
18721;DHT22;9489;50.948;3.114;2022-09-09T12:34:55;18.50;99.90
18721;DHT22;9489;50.948;3.114;2022-09-09T12:40:06;18.90;99.90
18721;DHT22;9489;50.948;3.114;2022-09-09T12:42:32;19.10;99.90
18721;DHT22;9489;50.948;3.114;2022-09-09T12:45:03;19.20;99.90
18721;DHT22;9489;50.948;3.114;2022-09-09T12:47:45;19.30;99.90
18721;DHT22;9489;50.948;3.114;2022-09-09T12:50:21;19.20;99.90
18721;DHT22;9489;50.948;3.114;2022-09-09T12:52:50;19.10;99.90
18721;DHT22;9489;50.948;3.114;2022-09-09T12:55:20;19.10;99.90
18721;DHT22;9489;50.948;3.114;2022-09-09T12:57:48;19.20;99.90
18721;DHT22;9489;50.948;3.114;2022-09-09T13:00:21;19.10;99.90
18721;DHT22;9489;50.948;3.114;2022-09-09T13:05:27;19.90;99.90
18721;DHT22;9489;50.948;3.114;2022-09-09T13:08:04;20.30;99.90
18721;DHT22;9489;50.948;3.114;2022-09-09T13:10:36;20.30;99.90
18721;DHT22;9489;50.948;3.114;2022-09-09T13:13:12;20.40;99.90
18721;DHT22;9489;50.948;3.114;2022-09-09T13:15:39;20.30;99.90
18721;DHT22;9489;50.948;3.114;2022-09-09T13:18:10;20.10;99.90
18721;DHT22;9489;50.948;3.114;2022-09-09T13:20:37;19.80;99.90
18721;DHT22;9489;50.948;3.114;2022-09-09T13:23:03;19.70;99.90
18721;DHT22;9489;50.948;3.114;2022-09-09T13:25:29;19.60;99.90
18721;DHT22;9489;50.948;3.114;2022-09-09T13:28:01;19.60;99.90
18721;DHT22;9489;50.948;3.114;2022-09-09T13:35:27;20.20;99.90
18721;DHT22;9489;50.948;3.114;2022-09-09T13:37:53;20.50;99.90
18721;DHT22;9489;50.948;3.114;2022-09-09T13:40:22;20.60;99.90
18721;DHT22;9489;50.948;3.114;2022-09-09T13:42:54;20.50;99.90
18721;DHT22;9489;50.948;3.114;2022-09-09T13:45:23;20.40;99.90
18721;DHT22;9489;50.948;3.114;2022-09-09T13:47:53;20.40;99.90
18721;DHT22;9489;50.948;3.114;2022-09-09T13:53:07;20.80;99.90
18721;DHT22;9489;50.948;3.114;2022-09-09T13:55:32;21.00;99.90
18721;DHT22;9489;50.948;3.114;2022-09-09T13:58:03;21.10;99.90
18721;DHT22;9489;50.948;3.114;2022-09-09T14:00:32;21.00;99.90
18721;DHT22;9489;50.948;3.114;2022-09-09T14:02:57;21.00;99.90
18721;DHT22;9489;50.948;3.114;2022-09-09T14:05:23;21.40;99.90
18721;DHT22;9489;50.948;3.114;2022-09-09T14:07:49;21.70;99.90
18721;DHT22;9489;50.948;3.114;2022-09-09T14:10:15;22.00;99.90
18721;DHT22;9489;50.948;3.114;2022-09-09T14:12:41;22.20;99.90
18721;DHT22;9489;50.948;3.114;2022-09-09T14:15:09;22.20;99.90
18721;DHT22;9489;50.948;3.114;2022-09-09T14:17:35;21.90;99.90
18721;DHT22;9489;50.948;3.114;2022-09-09T14:20:02;21.50;99.90
18721;DHT22;9489;50.948;3.114;2022-09-09T14:22:29;21.40;99.90
18721;DHT22;9489;50.948;3.114;2022-09-09T14:24:54;21.30;99.90
18721;DHT22;9489;50.948;3.114;2022-09-09T14:27:20;21.30;99.90
18721;DHT22;9489;50.948;3.114;2022-09-09T14:29:45;21.40;99.90
18721;DHT22;9489;50.948;3.114;2022-09-09T14:32:11;21.50;99.90
18721;DHT22;9489;50.948;3.114;2022-09-09T14:34:37;21.50;99.90
18721;DHT22;9489;50.948;3.114;2022-09-09T14:37:03;21.60;99.90
18721;DHT22;9489;50.948;3.114;2022-09-09T14:39:29;21.60;99.90
18721;DHT22;9489;50.948;3.114;2022-09-09T14:41:55;21.50;99.90
18721;DHT22;9489;50.948;3.114;2022-09-09T14:44:20;21.50;99.90
18721;DHT22;9489;50.948;3.114;2022-09-09T14:46:47;21.40;99.90
18721;DHT22;9489;50.948;3.114;2022-09-09T14:49:12;21.30;99.90
18721;DHT22;9489;50.948;3.114;2022-09-09T14:51:38;21.20;99.90
18721;DHT22;9489;50.948;3.114;2022-09-09T14:54:04;21.00;99.90
18721;DHT22;9489;50.948;3.114;2022-09-09T14:56:32;20.80;99.90
18721;DHT22;9489;50.948;3.114;2022-09-09T14:59:00;20.60;99.90
18721;DHT22;9489;50.948;3.114;2022-09-09T15:01:27;20.30;99.90
18721;DHT22;9489;50.948;3.114;2022-09-09T15:03:56;20.30;99.90
18721;DHT22;9489;50.948;3.114;2022-09-09T15:06:24;20.50;99.90
18721;DHT22;9489;50.948;3.114;2022-09-09T15:08:52;20.40;99.90
18721;DHT22;9489;50.948;3.114;2022-09-09T15:11:18;20.40;99.90
18721;DHT22;9489;50.948;3.114;2022-09-09T15:13:45;20.40;99.90
18721;DHT22;9489;50.948;3.114;2022-09-09T15:16:16;20.40;99.90
18721;DHT22;9489;50.948;3.114;2022-09-09T15:18:43;20.40;99.90
18721;DHT22;9489;50.948;3.114;2022-09-09T15:21:15;20.30;99.90
18721;DHT22;9489;50.948;3.114;2022-09-09T15:23:41;20.40;99.90
18721;DHT22;9489;50.948;3.114;2022-09-09T15:26:08;20.40;99.90
18721;DHT22;9489;50.948;3.114;2022-09-09T15:28:36;20.50;99.90
18721;DHT22;9489;50.948;3.114;2022-09-09T15:31:09;20.40;99.90
18721;DHT22;9489;50.948;3.114;2022-09-09T15:33:35;20.40;99.90
18721;DHT22;9489;50.948;3.114;2022-09-09T15:36:22;20.40;99.90
18721;DHT22;9489;50.948;3.114;2022-09-09T15:38:49;20.20;99.90
18721;DHT22;9489;50.948;3.114;2022-09-09T15:41:16;20.30;99.90
18721;DHT22;9489;50.948;3.114;2022-09-09T15:43:46;20.40;99.90
18721;DHT22;9489;50.948;3.114;2022-09-09T15:49:03;20.90;99.90
18721;DHT22;9489;50.948;3.114;2022-09-09T15:51:29;21.10;99.90
18721;DHT22;9489;50.948;3.114;2022-09-09T15:53:57;21.20;99.90
18721;DHT22;9489;50.948;3.114;2022-09-09T15:56:24;21.20;99.90
18721;DHT22;9489;50.948;3.114;2022-09-09T15:58:50;21.10;99.90
18721;DHT22;9489;50.948;3.114;2022-09-09T16:01:17;21.00;99.90
18721;DHT22;9489;50.948;3.114;2022-09-09T16:03:44;20.80;99.90
18721;DHT22;9489;50.948;3.114;2022-09-09T16:06:16;20.70;99.90
18721;DHT22;9489;50.948;3.114;2022-09-09T16:08:44;20.50;99.90
18721;DHT22;9489;50.948;3.114;2022-09-09T16:11:11;20.40;99.90
18721;DHT22;9489;50.948;3.114;2022-09-09T16:13:39;20.30;99.90
18721;DHT22;9489;50.948;3.114;2022-09-09T16:16:06;20.20;99.90
18721;DHT22;9489;50.948;3.114;2022-09-09T16:18:42;20.20;99.90
18721;DHT22;9489;50.948;3.114;2022-09-09T16:21:16;20.20;99.90
18721;DHT22;9489;50.948;3.114;2022-09-09T16:23:43;20.10;99.90
18721;DHT22;9489;50.948;3.114;2022-09-09T16:26:11;20.10;99.90
18721;DHT22;9489;50.948;3.114;2022-09-09T16:28:37;20.00;99.90
18721;DHT22;9489;50.948;3.114;2022-09-09T16:31:10;20.00;99.90
18721;DHT22;9489;50.948;3.114;2022-09-09T16:33:39;19.90;99.90
18721;DHT22;9489;50.948;3.114;2022-09-09T16:36:06;19.90;99.90
18721;DHT22;9489;50.948;3.114;2022-09-09T16:38:32;19.90;99.90
18721;DHT22;9489;50.948;3.114;2022-09-09T16:40:59;19.80;99.90
18721;DHT22;9489;50.948;3.114;2022-09-09T16:43:25;19.80;99.90
18721;DHT22;9489;50.948;3.114;2022-09-09T16:45:51;19.70;99.90
18721;DHT22;9489;50.948;3.114;2022-09-09T16:48:16;19.70;99.90
18721;DHT22;9489;50.948;3.114;2022-09-09T16:50:42;19.60;99.90
18721;DHT22;9489;50.948;3.114;2022-09-09T16:53:07;19.60;99.90
18721;DHT22;9489;50.948;3.114;2022-09-09T16:55:41;19.50;99.90
18721;DHT22;9489;50.948;3.114;2022-09-09T16:58:07;19.50;99.90
18721;DHT22;9489;50.948;3.114;2022-09-09T17:00:34;19.50;99.90
18721;DHT22;9489;50.948;3.114;2022-09-09T17:03:00;19.40;99.90
18721;DHT22;9489;50.948;3.114;2022-09-09T17:05:25;19.30;99.90
18721;DHT22;9489;50.948;3.114;2022-09-09T17:07:51;19.30;99.90
18721;DHT22;9489;50.948;3.114;2022-09-09T17:10:17;19.20;99.90
18721;DHT22;9489;50.948;3.114;2022-09-09T17:12:43;19.20;99.90
18721;DHT22;9489;50.948;3.114;2022-09-09T17:15:08;19.10;99.90
18721;DHT22;9489;50.948;3.114;2022-09-09T17:17:35;19.10;99.90
18721;DHT22;9489;50.948;3.114;2022-09-09T17:20:01;19.10;99.90
18721;DHT22;9489;50.948;3.114;2022-09-09T17:22:27;19.00;99.90
18721;DHT22;9489;50.948;3.114;2022-09-09T17:24:54;18.90;99.90
18721;DHT22;9489;50.948;3.114;2022-09-09T17:27:20;18.90;99.90
18721;DHT22;9489;50.948;3.114;2022-09-09T17:29:46;18.80;99.90
18721;DHT22;9489;50.948;3.114;2022-09-09T17:32:12;18.80;99.90
18721;DHT22;9489;50.948;3.114;2022-09-09T17:34:37;18.70;99.90
18721;DHT22;9489;50.948;3.114;2022-09-09T17:37:03;18.70;99.90
18721;DHT22;9489;50.948;3.114;2022-09-09T17:39:31;18.70;99.90
18721;DHT22;9489;50.948;3.114;2022-09-09T17:41:57;18.60;99.90
18721;DHT22;9489;50.948;3.114;2022-09-09T17:44:22;18.60;99.90
18721;DHT22;9489;50.948;3.114;2022-09-09T17:46:48;18.60;99.90
18721;DHT22;9489;50.948;3.114;2022-09-09T17:49:16;18.50;99.90
18721;DHT22;9489;50.948;3.114;2022-09-09T17:51:45;18.50;99.90
18721;DHT22;9489;50.948;3.114;2022-09-09T17:54:16;18.40;99.90
18721;DHT22;9489;50.948;3.114;2022-09-09T17:56:42;18.30;99.90
18721;DHT22;9489;50.948;3.114;2022-09-09T17:59:10;18.30;99.90
18721;DHT22;9489;50.948;3.114;2022-09-09T18:01:40;18.20;99.90
18721;DHT22;9489;50.948;3.114;2022-09-09T18:04:08;18.20;99.90
18721;DHT22;9489;50.948;3.114;2022-09-09T18:06:36;18.20;99.90
18721;DHT22;9489;50.948;3.114;2022-09-09T18:09:11;18.10;99.90